createdAt,value
2023-04-17T00:01:27.785Z,5.40
2023-04-17T00:03:54.693Z,5.57
2023-04-17T00:06:21.454Z,5.70
2023-04-17T00:08:48.140Z,5.20
2023-04-17T00:11:15.237Z,5.95
2023-04-17T00:13:44.001Z,5.00
2023-04-17T00:16:12.645Z,6.18
2023-04-17T00:18:40.273Z,5.65
2023-04-17T00:21:06.900Z,6.10
2023-04-17T00:23:33.588Z,6.60
2023-04-17T00:26:00.200Z,6.35
2023-04-17T00:28:26.864Z,6.05
2023-04-17T00:30:53.462Z,6.25
2023-04-17T00:33:20.259Z,5.77
2023-04-17T00:35:47.833Z,6.97
2023-04-17T00:38:14.478Z,7.50
2023-04-17T00:40:42.150Z,8.02
2023-04-17T00:43:08.860Z,7.00
2023-04-17T00:45:35.741Z,7.63
2023-04-17T00:48:04.155Z,7.57
2023-04-17T00:50:33.560Z,10.93
2023-04-17T00:53:00.782Z,20.48
2023-04-17T00:55:32.117Z,10.73
2023-04-17T00:58:00.177Z,8.33
2023-04-17T01:00:26.877Z,8.73
2023-04-17T01:02:56.753Z,6.25
2023-04-17T01:05:25.089Z,7.72
2023-04-17T01:07:52.093Z,7.10
2023-04-17T01:10:18.774Z,7.50
2023-04-17T01:12:49.008Z,7.80
2023-04-17T01:15:17.005Z,8.35
2023-04-17T01:17:43.522Z,7.75
2023-04-17T01:20:11.822Z,6.13
2023-04-17T01:22:38.449Z,7.23
2023-04-17T01:25:05.853Z,7.50
2023-04-17T01:27:36.620Z,7.53
2023-04-17T01:30:03.944Z,7.68
2023-04-17T01:32:34.522Z,6.43
2023-04-17T01:35:01.115Z,7.23
2023-04-17T01:37:27.851Z,6.20
2023-04-17T01:39:55.777Z,9.27
2023-04-17T01:42:23.076Z,7.22
2023-04-17T01:44:50.674Z,7.85
2023-04-17T01:47:20.127Z,7.73
2023-04-17T01:49:46.831Z,6.88
2023-04-17T01:52:13.426Z,8.38
2023-04-17T01:54:40.196Z,8.55
2023-04-17T01:57:06.833Z,7.18
2023-04-17T01:59:35.395Z,7.00
2023-04-17T02:02:02.007Z,7.70
2023-04-17T02:04:28.930Z,7.95
2023-04-17T02:06:56.532Z,7.70
2023-04-17T02:09:23.538Z,8.35
2023-04-17T02:11:50.393Z,6.57
2023-04-17T02:14:18.786Z,6.60
2023-04-17T02:16:48.312Z,6.15
2023-04-17T02:19:14.926Z,7.07
2023-04-17T02:21:42.497Z,7.07
2023-04-17T02:24:09.021Z,8.10
2023-04-17T02:26:36.981Z,21.42
2023-04-17T02:29:04.567Z,45.97
2023-04-17T02:31:31.268Z,48.10
2023-04-17T02:33:57.970Z,33.50
2023-04-17T02:36:24.696Z,24.80
2023-04-17T02:38:51.777Z,14.02
2023-04-17T02:41:19.296Z,22.45
2023-04-17T02:43:47.122Z,24.95
2023-04-17T02:46:16.011Z,55.60
2023-04-17T02:48:43.917Z,20.37
2023-04-17T02:51:10.714Z,20.20
2023-04-17T02:53:37.326Z,9.38
2023-04-17T02:56:05.221Z,11.98
2023-04-17T02:58:33.438Z,10.63
2023-04-17T03:01:02.546Z,8.63
2023-04-17T03:03:34.819Z,9.77
2023-04-17T03:06:04.443Z,17.20
2023-04-17T03:08:35.751Z,10.25
2023-04-17T03:11:03.303Z,10.07
2023-04-17T03:13:30.150Z,11.07
2023-04-17T03:15:58.556Z,11.38
2023-04-17T03:18:25.825Z,13.80
2023-04-17T03:20:54.029Z,11.30
2023-04-17T03:23:20.667Z,11.75
2023-04-17T03:25:47.577Z,12.77
2023-04-17T03:28:18.453Z,15.43
2023-04-17T03:30:45.035Z,14.82
2023-04-17T03:33:12.012Z,9.98
2023-04-17T03:35:38.681Z,9.75
2023-04-17T03:38:08.365Z,10.30
2023-04-17T03:40:36.071Z,10.38
2023-04-17T03:43:02.758Z,11.30
2023-04-17T03:45:30.788Z,10.23
2023-04-17T03:47:57.767Z,10.95
2023-04-17T03:50:24.789Z,11.03
2023-04-17T03:52:55.849Z,12.05
2023-04-17T03:55:24.772Z,11.98
2023-04-17T03:57:52.301Z,11.23
2023-04-17T04:00:21.725Z,11.10
2023-04-17T04:02:53.599Z,11.13
2023-04-17T04:05:48.180Z,11.43
2023-04-17T04:08:16.780Z,10.30
2023-04-17T04:10:47.713Z,9.70
2023-04-17T04:13:21.060Z,13.20
2023-04-17T04:15:56.998Z,11.00
2023-04-17T04:18:26.318Z,11.88
2023-04-17T04:20:53.207Z,11.70
2023-04-17T04:23:27.956Z,10.85
2023-04-17T04:25:56.853Z,11.63
2023-04-17T04:28:53.548Z,10.77
2023-04-17T04:31:37.871Z,11.80
2023-04-17T04:34:06.003Z,11.40
2023-04-17T04:36:36.055Z,11.55
2023-04-17T04:39:20.599Z,10.30
2023-04-17T04:41:50.525Z,10.67
2023-04-17T04:44:19.621Z,11.77
2023-04-17T04:46:47.960Z,12.90
2023-04-17T04:49:17.005Z,11.75
2023-04-17T04:51:43.629Z,10.85
2023-04-17T04:54:10.659Z,10.60
2023-04-17T04:56:46.406Z,9.77
2023-04-17T04:59:16.029Z,10.68
2023-04-17T05:01:51.559Z,9.45
2023-04-17T05:04:21.420Z,10.60
2023-04-17T05:06:51.748Z,10.77
2023-04-17T05:09:18.620Z,9.65
2023-04-17T05:11:47.633Z,9.48
2023-04-17T05:14:14.293Z,10.73
2023-04-17T05:16:41.627Z,10.05
2023-04-17T05:19:08.269Z,11.53
2023-04-17T05:21:56.268Z,11.10
2023-04-17T05:24:23.827Z,11.27
2023-04-17T05:26:50.437Z,12.25
2023-04-17T05:29:17.744Z,13.30
2023-04-17T05:31:44.417Z,11.80
2023-04-17T05:34:23.642Z,10.73
2023-04-17T05:36:50.205Z,11.95
2023-04-17T05:39:16.783Z,10.48
2023-04-17T05:41:43.326Z,10.05
2023-04-17T05:44:09.983Z,10.77
2023-04-17T05:46:37.622Z,11.23
2023-04-17T05:49:04.986Z,9.00
2023-04-17T05:51:31.646Z,8.60
2023-04-17T05:53:58.254Z,11.93
2023-04-17T05:56:25.296Z,10.27
2023-04-17T05:58:52.349Z,10.38
2023-04-17T06:01:22.502Z,11.23
2023-04-17T06:03:52.973Z,11.52
2023-04-17T06:06:23.665Z,12.65
2023-04-17T06:08:53.704Z,14.27
2023-04-17T06:11:23.003Z,14.75
2023-04-17T06:13:49.763Z,12.10
2023-04-17T06:16:18.831Z,13.43
2023-04-17T06:18:47.541Z,12.30
2023-04-17T06:21:14.217Z,12.53
2023-04-17T06:23:40.860Z,14.77
2023-04-17T06:26:08.072Z,12.55
2023-04-17T06:28:34.749Z,12.52
2023-04-17T06:31:01.474Z,12.73
2023-04-17T06:33:28.096Z,15.60
2023-04-17T06:35:56.108Z,11.43
2023-04-17T06:38:29.892Z,11.02
2023-04-17T06:40:56.744Z,12.60
2023-04-17T06:43:23.383Z,14.02
2023-04-17T06:45:53.059Z,13.10
2023-04-17T06:48:19.728Z,11.75
2023-04-17T06:50:47.302Z,19.73
2023-04-17T06:53:13.960Z,22.27
2023-04-17T06:55:40.602Z,13.77
2023-04-17T06:58:10.147Z,13.03
2023-04-17T07:00:36.711Z,11.48
2023-04-17T07:03:03.575Z,12.75
2023-04-17T07:05:30.502Z,12.40
2023-04-17T07:07:57.200Z,12.13
2023-04-17T07:10:23.799Z,13.23
2023-04-17T07:12:50.557Z,15.77
2023-04-17T07:15:17.260Z,13.10
2023-04-17T07:17:44.053Z,12.75
2023-04-17T07:20:11.210Z,13.63
2023-04-17T07:22:38.156Z,14.50
2023-04-17T07:25:05.706Z,12.27
2023-04-17T07:27:32.291Z,13.95
2023-04-17T07:29:58.880Z,13.55
2023-04-17T07:32:25.539Z,11.52
2023-04-17T07:34:52.875Z,13.73
2023-04-17T07:37:19.626Z,12.40
2023-04-17T07:39:49.263Z,13.45
2023-04-17T07:42:16.545Z,13.88
2023-04-17T07:44:43.165Z,13.27
2023-04-17T07:47:09.818Z,16.57
2023-04-17T07:49:36.533Z,14.25
2023-04-17T07:52:03.151Z,14.05
2023-04-17T07:54:31.590Z,13.70
2023-04-17T07:57:02.768Z,15.35
2023-04-17T07:59:30.076Z,13.20
2023-04-17T08:01:57.496Z,14.60
2023-04-17T08:04:25.576Z,12.45
2023-04-17T08:06:52.544Z,14.15
2023-04-17T08:09:21.141Z,16.85
2023-04-17T08:11:56.888Z,15.73
2023-04-17T08:14:24.373Z,14.73
2023-04-17T08:16:51.388Z,14.90
2023-04-17T08:19:18.273Z,16.13
2023-04-17T08:21:47.586Z,14.65
2023-04-17T08:24:14.333Z,15.90
2023-04-17T08:26:41.502Z,15.07
2023-04-17T08:29:08.189Z,18.75
2023-04-17T08:31:39.891Z,18.20
2023-04-17T08:34:14.388Z,14.02
2023-04-17T08:36:42.668Z,16.43
2023-04-17T08:39:12.729Z,14.80
2023-04-17T08:41:47.274Z,15.48
2023-04-17T08:44:21.336Z,14.75
2023-04-17T08:46:49.437Z,14.85
2023-04-17T08:49:16.703Z,13.67
2023-04-17T08:51:43.378Z,13.85
2023-04-17T08:54:10.392Z,13.27
2023-04-17T08:56:37.014Z,13.73
2023-04-17T08:59:04.557Z,13.98
2023-04-17T09:01:31.300Z,13.57
2023-04-17T09:03:58.227Z,14.10
2023-04-17T09:06:24.994Z,14.02
2023-04-17T09:08:58.178Z,14.88
2023-04-17T09:11:25.377Z,13.90
2023-04-17T09:13:53.829Z,13.70
2023-04-17T09:16:21.087Z,13.77
2023-04-17T09:18:48.032Z,12.68
2023-04-17T09:21:16.764Z,14.23
2023-04-17T09:23:50.855Z,12.32
2023-04-17T09:26:31.839Z,13.27
2023-04-17T09:29:11.379Z,14.75
2023-04-17T09:31:40.574Z,12.77
2023-04-17T09:34:09.430Z,13.10
2023-04-17T09:36:37.774Z,11.70
2023-04-17T09:39:16.700Z,11.83
2023-04-17T09:41:43.446Z,12.25
2023-04-17T09:44:12.429Z,11.70
2023-04-17T09:46:45.903Z,12.10
2023-04-17T09:49:24.187Z,11.60
2023-04-17T09:51:50.908Z,12.70
2023-04-17T09:54:20.065Z,11.20
2023-04-17T09:56:49.597Z,11.18
2023-04-17T09:59:16.558Z,12.10
2023-04-17T10:01:44.731Z,11.35
2023-04-17T10:04:12.097Z,10.53
2023-04-17T10:06:39.115Z,10.93
2023-04-17T10:09:05.953Z,10.75
2023-04-17T10:11:38.569Z,10.73
2023-04-17T10:14:25.655Z,11.52
2023-04-17T10:16:52.981Z,11.73
2023-04-17T10:19:31.663Z,12.43
2023-04-17T10:22:18.730Z,11.52
2023-04-17T10:25:10.742Z,11.82
2023-04-17T10:27:37.357Z,10.82
2023-04-17T10:30:05.622Z,11.77
2023-04-17T10:32:34.171Z,11.45
2023-04-17T10:35:03.870Z,11.43
2023-04-17T10:37:50.063Z,11.18
2023-04-17T10:40:22.132Z,10.60
2023-04-17T10:43:22.489Z,12.23
2023-04-17T10:46:12.165Z,12.38
2023-04-17T10:48:52.818Z,11.55
2023-04-17T10:51:29.037Z,10.75
2023-04-17T10:54:02.821Z,11.00
2023-04-17T10:56:39.974Z,11.00
2023-04-17T10:59:08.243Z,10.50
2023-04-17T11:01:42.084Z,10.35
2023-04-17T11:04:10.520Z,11.85
2023-04-17T11:06:39.594Z,10.30
2023-04-17T11:09:10.971Z,10.80
2023-04-17T11:11:44.551Z,11.55
2023-04-17T11:14:15.094Z,13.30
2023-04-17T11:16:44.165Z,15.43
2023-04-17T11:19:15.457Z,10.38
2023-04-17T11:21:42.981Z,12.93
2023-04-17T11:24:10.192Z,11.77
2023-04-17T11:26:48.084Z,11.30
2023-04-17T11:29:21.921Z,11.27
2023-04-17T11:31:51.823Z,12.38
2023-04-17T11:34:19.008Z,9.57
2023-04-17T11:36:59.995Z,13.13
2023-04-17T11:39:32.329Z,10.55
2023-04-17T11:41:59.332Z,9.85
2023-04-17T11:44:28.264Z,10.30
2023-04-17T11:46:56.648Z,11.10
2023-04-17T11:49:37.269Z,10.23
2023-04-17T11:52:05.118Z,12.18
2023-04-17T11:54:37.123Z,13.43
2023-04-17T11:57:06.403Z,10.35
2023-04-17T11:59:37.845Z,10.97
2023-04-17T12:02:07.359Z,10.88
2023-04-17T12:04:36.934Z,12.07
2023-04-17T12:07:05.193Z,10.57
2023-04-17T12:09:33.560Z,11.68
2023-04-17T12:12:09.217Z,10.67
2023-04-17T12:14:36.042Z,10.57
2023-04-17T12:17:02.671Z,11.50
2023-04-17T12:19:31.621Z,11.10
2023-04-17T12:21:59.289Z,10.80
2023-04-17T12:24:26.152Z,9.50
2023-04-17T12:26:52.998Z,10.32
2023-04-17T12:29:26.563Z,10.80
2023-04-17T12:31:59.289Z,9.77
2023-04-17T12:34:27.695Z,11.88
2023-04-17T12:36:54.719Z,10.33
2023-04-17T12:39:21.402Z,9.60
2023-04-17T12:41:47.991Z,10.07
2023-04-17T12:44:14.902Z,11.57
2023-04-17T12:46:41.665Z,10.13
2023-04-17T12:49:08.901Z,10.50
2023-04-17T12:51:38.001Z,10.82
2023-04-17T12:54:04.965Z,11.02
2023-04-17T12:56:32.137Z,10.80
2023-04-17T12:59:01.257Z,10.35
2023-04-17T13:01:29.522Z,9.87
2023-04-17T13:03:56.526Z,10.23
2023-04-17T13:06:23.298Z,10.13
2023-04-17T13:08:49.901Z,9.30
2023-04-17T13:11:16.740Z,10.55
2023-04-17T13:13:43.374Z,9.30
2023-04-17T13:16:10.359Z,9.88
2023-04-17T13:18:37.539Z,10.00
2023-04-17T13:21:04.158Z,10.85
2023-04-17T13:23:32.460Z,9.90
2023-04-17T13:25:59.034Z,10.73
2023-04-17T13:28:25.637Z,10.50
2023-04-17T13:30:53.038Z,9.98
2023-04-17T13:33:19.805Z,9.82
2023-04-17T13:35:46.432Z,8.48
2023-04-17T13:38:12.972Z,10.57
2023-04-17T13:40:40.823Z,11.90
2023-04-17T13:43:09.244Z,10.40
2023-04-17T13:45:36.067Z,10.07
2023-04-17T13:48:02.784Z,11.38
2023-04-17T13:50:29.471Z,9.70
2023-04-17T13:52:57.127Z,10.75
2023-04-17T13:55:24.029Z,11.25
2023-04-17T13:57:51.315Z,12.48
2023-04-17T14:00:18.775Z,10.77
2023-04-17T14:02:46.290Z,10.13
2023-04-17T14:05:13.164Z,12.13
2023-04-17T14:07:39.926Z,12.88
2023-04-17T14:10:07.617Z,13.82
2023-04-17T14:12:34.242Z,11.85
2023-04-17T14:15:00.852Z,9.47
2023-04-17T14:17:27.558Z,11.75
2023-04-17T14:19:54.257Z,11.48
2023-04-17T14:22:20.851Z,12.13
2023-04-17T14:24:47.420Z,10.73
2023-04-17T14:27:13.969Z,11.63
2023-04-17T14:29:40.530Z,11.13
2023-04-17T14:32:07.250Z,10.85
2023-04-17T14:34:33.918Z,11.98
2023-04-17T14:37:00.499Z,11.95
2023-04-17T14:39:28.910Z,13.23
2023-04-17T14:41:57.930Z,14.00
2023-04-17T14:44:25.614Z,17.75
2023-04-17T14:46:52.408Z,15.70
2023-04-17T14:49:20.422Z,9.63
2023-04-17T14:51:46.980Z,8.97
2023-04-17T14:54:13.533Z,12.00
2023-04-17T14:56:40.415Z,9.48
2023-04-17T14:59:07.039Z,12.63
2023-04-17T15:01:33.705Z,11.57
2023-04-17T15:04:00.476Z,13.60
2023-04-17T15:06:27.476Z,12.15
2023-04-17T15:08:54.071Z,16.85
2023-04-17T15:11:21.048Z,32.22
2023-04-17T15:13:47.707Z,22.55
2023-04-17T15:16:14.467Z,13.47
2023-04-17T15:18:41.039Z,13.07
2023-04-17T15:21:07.988Z,12.40
2023-04-17T15:23:35.444Z,9.07
2023-04-17T15:26:02.122Z,9.00
2023-04-17T15:28:28.840Z,9.87
2023-04-17T15:30:56.285Z,8.63
2023-04-17T15:33:22.926Z,11.77
2023-04-17T15:35:55.135Z,9.48
2023-04-17T15:38:21.786Z,10.00
2023-04-17T15:40:48.492Z,9.80
2023-04-17T15:43:15.206Z,9.77
2023-04-17T15:45:41.966Z,9.52
2023-04-17T15:48:08.729Z,10.07
2023-04-17T15:50:35.649Z,9.15
2023-04-17T15:53:02.798Z,10.20
2023-04-17T15:55:29.468Z,10.57
2023-04-17T15:57:56.150Z,8.80
2023-04-17T16:00:22.834Z,9.45
2023-04-17T16:02:49.625Z,10.10
2023-04-17T16:05:17.099Z,9.30
2023-04-17T16:07:44.362Z,10.68
2023-04-17T16:10:14.746Z,13.88
2023-04-17T16:12:45.249Z,10.48
2023-04-17T16:15:14.385Z,9.88
2023-04-17T16:17:41.809Z,10.33
2023-04-17T16:20:09.287Z,8.90
2023-04-17T16:22:36.974Z,10.45
2023-04-17T16:25:04.273Z,10.10
2023-04-17T16:27:32.391Z,9.52
2023-04-17T16:29:59.506Z,10.67
2023-04-17T16:32:27.361Z,10.90
2023-04-17T16:34:54.164Z,12.45
2023-04-17T16:37:20.810Z,9.55
2023-04-17T16:39:47.518Z,10.30
2023-04-17T16:42:14.578Z,11.53
2023-04-17T16:44:41.217Z,11.30
2023-04-17T16:47:13.473Z,10.40
2023-04-17T16:49:41.557Z,9.88
2023-04-17T16:52:08.216Z,10.52
2023-04-17T16:54:34.858Z,9.50
2023-04-17T16:57:01.589Z,11.68
2023-04-17T16:59:28.207Z,15.55
2023-04-17T17:01:54.932Z,10.15
2023-04-17T17:04:21.635Z,11.48
2023-04-17T17:06:48.307Z,11.10
2023-04-17T17:09:15.240Z,11.70
2023-04-17T17:11:42.034Z,10.40
2023-04-17T17:14:08.741Z,15.07
2023-04-17T17:16:35.492Z,15.60
2023-04-17T17:19:02.549Z,11.00
2023-04-17T17:21:29.271Z,10.55
2023-04-17T17:23:56.171Z,11.75
2023-04-17T17:26:22.824Z,15.77
2023-04-17T17:28:51.359Z,13.27
2023-04-17T17:31:18.380Z,14.23
2023-04-17T17:33:49.797Z,15.27
2023-04-17T17:36:16.826Z,16.88
2023-04-17T17:38:43.951Z,18.10
2023-04-17T17:41:10.648Z,23.13
2023-04-17T17:43:37.284Z,19.90
2023-04-17T17:46:03.859Z,18.35
2023-04-17T17:48:30.541Z,17.45
2023-04-17T17:50:57.551Z,17.90
2023-04-17T17:53:26.575Z,15.52
2023-04-17T17:55:56.942Z,17.67
2023-04-17T17:58:24.563Z,19.42
2023-04-17T18:00:51.483Z,16.77
2023-04-17T18:03:18.784Z,16.52
2023-04-17T18:05:46.586Z,14.68
2023-04-17T18:08:13.877Z,12.10
2023-04-17T18:10:40.506Z,13.73
2023-04-17T18:13:07.121Z,12.60
2023-04-17T18:15:33.950Z,12.90
2023-04-17T18:18:00.745Z,10.60
2023-04-17T18:20:27.478Z,10.33
2023-04-17T18:22:54.198Z,12.18
2023-04-17T18:25:21.133Z,12.85
2023-04-17T18:27:47.711Z,13.38
2023-04-17T18:30:15.108Z,11.80
2023-04-17T18:32:41.763Z,11.27
2023-04-17T18:35:08.784Z,11.52
2023-04-17T18:37:35.462Z,11.38
2023-04-17T18:40:02.155Z,10.02
2023-04-17T18:42:28.870Z,9.25
2023-04-17T18:44:55.452Z,9.90
2023-04-17T18:47:22.118Z,9.98
2023-04-17T18:49:52.151Z,11.75
2023-04-17T18:52:18.868Z,13.50
2023-04-17T18:54:45.577Z,12.40
2023-04-17T18:57:12.214Z,11.63
2023-04-17T18:59:39.457Z,16.02
2023-04-17T19:02:07.440Z,11.77
2023-04-17T19:04:34.150Z,15.00
2023-04-17T19:07:02.670Z,14.10
2023-04-17T19:09:29.353Z,12.63
2023-04-17T19:11:57.390Z,15.23
2023-04-17T19:14:24.657Z,15.57
2023-04-17T19:16:51.864Z,15.27
2023-04-17T19:19:18.488Z,15.68
2023-04-17T19:21:45.153Z,17.63
2023-04-17T19:24:11.771Z,18.45
2023-04-17T19:26:38.408Z,16.95
2023-04-17T19:29:05.217Z,16.83
2023-04-17T19:31:32.809Z,14.07
2023-04-17T19:34:00.382Z,16.20
2023-04-17T19:36:28.131Z,14.57
2023-04-17T19:38:55.996Z,15.90
2023-04-17T19:41:22.677Z,15.00
2023-04-17T19:43:51.242Z,16.25
2023-04-17T19:46:19.107Z,40.90
2023-04-17T19:48:47.105Z,39.13
2023-04-17T19:51:14.492Z,84.65
2023-04-17T19:53:42.576Z,26.15
2023-04-17T19:56:10.461Z,19.83
2023-04-17T19:58:37.999Z,20.70
2023-04-17T20:01:04.718Z,22.80
2023-04-17T20:03:32.438Z,21.85
2023-04-17T20:05:59.964Z,17.83
2023-04-17T20:08:26.624Z,21.63
2023-04-17T20:10:53.485Z,21.43
2023-04-17T20:13:20.084Z,18.98
2023-04-17T20:15:47.070Z,16.42
2023-04-17T20:18:13.683Z,23.08
2023-04-17T20:20:40.412Z,26.95
2023-04-17T20:23:07.055Z,28.40
2023-04-17T20:25:33.647Z,28.60
2023-04-17T20:28:02.690Z,22.60
2023-04-17T20:30:29.660Z,16.00
2023-04-17T20:32:56.681Z,15.50
2023-04-17T20:35:24.632Z,15.13
2023-04-17T20:37:51.791Z,14.80
2023-04-17T20:40:19.003Z,14.63
2023-04-17T20:42:46.694Z,16.90
2023-04-17T20:45:13.537Z,15.98
2023-04-17T20:47:55.469Z,19.73
2023-04-17T20:50:24.058Z,15.95
2023-04-17T20:52:50.751Z,15.82
2023-04-17T20:55:19.657Z,16.08
2023-04-17T20:57:46.573Z,15.20
2023-04-17T21:00:14.287Z,17.70
2023-04-17T21:02:41.111Z,17.58
2023-04-17T21:05:08.498Z,16.70
2023-04-17T21:07:36.105Z,17.80
2023-04-17T21:10:02.862Z,19.38
2023-04-17T21:12:29.548Z,19.37
2023-04-17T21:14:56.245Z,18.55
2023-04-17T21:17:22.883Z,19.92
2023-04-17T21:19:49.646Z,23.25
2023-04-17T21:22:16.426Z,18.45
2023-04-17T21:24:43.204Z,17.20
2023-04-17T21:27:10.380Z,16.83
2023-04-17T21:29:37.480Z,16.45
2023-04-17T21:32:04.398Z,16.88
2023-04-17T21:34:31.054Z,18.33
2023-04-17T21:36:59.738Z,17.77
2023-04-17T21:39:26.543Z,16.42
2023-04-17T21:41:53.149Z,17.52
2023-04-17T21:44:19.762Z,15.52
2023-04-17T21:46:46.598Z,13.32
2023-04-17T21:49:13.265Z,14.87
2023-04-17T21:51:40.108Z,14.35
2023-04-17T21:54:08.380Z,15.98
2023-04-17T21:56:35.255Z,15.70
2023-04-17T21:59:02.158Z,16.00
2023-04-17T22:01:28.836Z,16.90
2023-04-17T22:03:55.624Z,18.05
2023-04-17T22:06:22.276Z,18.33
2023-04-17T22:08:48.942Z,18.15
2023-04-17T22:11:15.651Z,19.70
2023-04-17T22:13:42.795Z,17.43
2023-04-17T22:16:09.477Z,17.98
2023-04-17T22:18:36.210Z,17.20
2023-04-17T22:21:03.563Z,17.13
2023-04-17T22:23:30.486Z,23.65
2023-04-17T22:25:57.108Z,40.83
2023-04-17T22:28:23.735Z,26.30
2023-04-17T22:30:51.943Z,17.92
2023-04-17T22:33:18.684Z,17.88
2023-04-17T22:35:45.237Z,19.63
2023-04-17T22:38:11.864Z,18.23
2023-04-17T22:40:38.749Z,15.70
2023-04-17T22:43:05.723Z,15.27
2023-04-17T22:45:32.711Z,14.43
2023-04-17T22:47:59.508Z,18.30
2023-04-17T22:50:26.142Z,19.33
2023-04-17T22:52:52.746Z,15.38
2023-04-17T22:55:19.341Z,14.93
2023-04-17T22:57:45.948Z,14.60
2023-04-17T23:00:13.113Z,15.95
2023-04-17T23:02:39.825Z,13.00
2023-04-17T23:05:07.106Z,11.80
2023-04-17T23:07:33.808Z,12.57
2023-04-17T23:10:00.560Z,12.60
2023-04-17T23:12:27.213Z,13.40
2023-04-17T23:14:53.742Z,14.00
2023-04-17T23:17:20.316Z,14.10
2023-04-17T23:19:47.974Z,13.18
2023-04-17T23:22:14.734Z,12.75
2023-04-17T23:24:41.416Z,14.75
2023-04-17T23:27:07.935Z,13.93
2023-04-17T23:29:34.501Z,13.07
2023-04-17T23:32:01.229Z,13.90
2023-04-17T23:34:28.004Z,14.48
2023-04-17T23:36:54.543Z,15.05
2023-04-17T23:39:21.097Z,17.70
2023-04-17T23:41:47.853Z,17.88
2023-04-17T23:44:14.905Z,14.38
2023-04-17T23:46:41.862Z,14.88
2023-04-17T23:49:09.535Z,16.65
2023-04-17T23:51:36.190Z,17.60
2023-04-17T23:54:02.925Z,18.02
2023-04-17T23:56:30.096Z,16.23
2023-04-17T23:58:57.523Z,16.92
